.
WxDataArchive / Data Records for 2013-07-07
2013-07-06 July 2013 2013-07-08

Data Records for Sunday, 07 July 2013

Time	Temp	Chill	HIndex	Humid	Dewpt	 Wind 	HiWind	WindDir	Rain 	Barom 
-----	----	-----	------	-----	-----	------	------	-------	-----	----- 
00:00	70.3	70.3	70.3	93	68.2	0	1	292	0.00	30.044 
00:05	70.3	70.3	70.3	93	68.2	0	1	292	0.00	30.044 
00:10	70.1	70.1	70.1	93	68.0	0	1	292	0.00	30.044 
00:15	70.1	70.1	70.1	94	68.3	0	1	292	0.00	30.044 
00:20	70.1	70.1	70.1	94	68.3	0	1	292	0.00	30.044 
00:25	69.9	69.9	69.9	94	68.1	0	2	292	0.00	30.044 
00:30	69.9	69.9	69.9	94	68.1	0	1	292	0.00	30.043 
00:35	69.8	69.8	69.8	94	68.0	0	2	292	0.00	30.043 
00:40	69.6	69.6	69.6	94	67.8	0	2	292	0.00	30.043 
00:45	69.6	69.6	69.6	94	67.8	0	3	292	0.00	30.043 
00:50	69.4	69.4	69.4	94	67.6	0	1	292	0.00	30.043 
00:55	69.3	69.3	69.3	94	67.5	0	1	292	0.00	30.043 
01:00	69.3	69.3	69.3	94	67.5	0	1	292	0.00	30.045 
01:05	69.1	69.1	69.1	94	67.3	0	2	292	0.00	30.045 
01:10	69.1	69.1	69.1	94	67.3	0	1	292	0.00	30.045 
01:15	69.1	69.1	69.1	94	67.3	0	1	292	0.00	30.045 
01:20	68.9	68.9	68.9	94	67.1	0	1	292	0.00	30.045 
01:25	68.9	68.9	68.9	94	67.1	0	1	292	0.00	30.045 
01:30	68.8	68.8	68.8	94	67.0	0	2	292	0.00	30.043 
01:35	68.8	68.8	68.8	94	67.0	0	1	292	0.00	30.043 
01:40	68.6	68.6	68.6	94	66.8	0	1	292	0.00	30.043 
01:45	68.4	68.4	68.4	94	66.6	0	2	292	0.00	30.043 
01:50	68.3	68.3	68.3	94	66.5	0	2	292	0.00	30.043 
01:55	68.1	68.1	68.1	94	66.3	0	1	292	0.00	30.043 
02:00	67.9	67.9	67.9	94	66.1	0	1	292	0.00	30.044 
02:05	67.9	67.9	67.9	94	66.1	0	1	292	0.00	30.044 
02:10	67.9	67.9	67.9	94	66.1	0	2	292	0.00	30.044 
02:15	67.9	67.9	67.9	94	66.1	0	0	---	0.00	30.042 
02:20	67.8	67.8	67.8	94	66.0	0	1	292	0.00	30.042 
02:25	67.8	67.8	67.8	94	66.0	0	1	292	0.00	30.042 
02:30	67.8	67.8	67.8	94	66.0	0	0	---	0.00	30.034 
02:35	67.8	67.8	67.8	94	66.0	0	0	---	0.00	30.034 
02:40	67.8	67.8	67.8	94	66.0	0	1	292	0.00	30.034 
02:45	67.8	67.8	67.8	94	66.0	0	0	---	0.00	30.030 
02:50	67.8	67.8	67.8	94	66.0	0	1	292	0.00	30.030 
02:55	67.8	67.8	67.8	94	66.0	0	1	292	0.00	30.030 
03:00	67.6	67.6	67.6	94	65.8	0	1	292	0.00	30.031 
03:05	67.6	67.6	67.6	94	65.8	0	1	292	0.00	30.031 
03:10	67.6	67.6	67.6	94	65.8	0	2	292	0.00	30.031 
03:15	67.6	67.6	67.6	94	65.8	0	1	292	0.00	30.029 
03:20	67.6	67.6	67.6	94	65.8	0	1	292	0.00	30.029 
03:25	67.6	67.6	67.6	94	65.8	0	0	---	0.00	30.029 
03:30	67.6	67.6	67.6	93	65.5	0	0	---	0.00	30.027 
03:35	67.6	67.6	67.6	94	65.8	0	1	292	0.00	30.027 
03:40	67.4	67.4	67.4	94	65.6	0	1	292	0.00	30.027 
03:45	67.4	67.4	67.4	93	65.3	0	1	292	0.00	30.026 
03:50	67.4	67.4	67.4	94	65.6	0	1	292	0.00	30.026 
03:55	67.4	67.4	67.4	94	65.6	0	1	292	0.00	30.026 
04:00	67.4	67.4	67.4	94	65.6	0	0	---	0.00	30.024 
04:05	67.4	67.4	67.4	94	65.6	0	1	292	0.00	30.024 
04:10	67.3	67.3	67.3	93	65.2	0	1	292	0.00	30.024 
04:15	67.3	67.3	67.3	93	65.2	0	0	---	0.00	30.020 
04:20	67.3	67.3	67.3	93	65.2	0	0	---	0.00	30.020 
04:25	67.1	67.1	67.1	93	65.0	0	1	292	0.00	30.020 
04:30	67.1	67.1	67.1	93	65.0	0	1	292	0.00	30.014 
04:35	67.1	67.1	67.1	93	65.0	0	0	---	0.00	30.014 
04:40	66.9	66.9	66.9	93	64.8	0	0	---	0.00	30.014 
04:45	66.9	66.9	66.9	94	65.1	0	0	---	0.00	30.012 
04:50	66.8	66.8	66.8	93	64.7	0	0	---	0.00	30.012 
04:55	66.8	66.8	66.8	94	65.0	0	0	---	0.00	30.012 
05:00	66.6	66.6	66.6	94	64.8	0	0	---	0.00	30.010 
05:05	66.6	66.6	66.6	94	64.8	0	0	---	0.00	30.010 
05:10	66.4	66.4	66.4	94	64.6	0	0	---	0.00	30.010 
05:15	66.4	66.4	66.4	94	64.6	0	0	---	0.00	30.014 
05:20	66.4	66.4	66.4	94	64.6	0	0	---	0.00	30.014 
05:25	66.3	66.3	66.3	94	64.5	0	0	---	0.00	30.014 
05:30	66.3	66.3	66.3	94	64.5	0	0	---	0.00	30.015 
05:35	66.3	66.3	66.3	94	64.5	0	1	292	0.00	30.015 
05:40	66.3	66.3	66.3	94	64.5	0	0	---	0.00	30.015 
05:45	66.3	66.3	66.3	94	64.5	0	1	292	0.00	30.024 
05:50	66.3	66.3	66.3	94	64.5	0	0	---	0.00	30.024 
05:55	66.3	66.3	66.3	94	64.5	0	0	---	0.00	30.024 
06:00	66.3	66.3	66.3	94	64.5	0	1	292	0.00	30.030 
06:05	66.4	66.4	66.4	95	64.9	0	1	292	0.00	30.030 
06:10	66.4	66.4	66.4	95	64.9	0	0	---	0.00	30.030 
06:15	66.4	66.4	66.4	95	64.9	0	0	---	0.00	30.030 
06:20	66.4	66.4	66.4	95	64.9	0	0	---	0.00	30.030 
06:25	66.4	66.4	66.4	95	64.9	0	0	---	0.00	30.030 
06:30	66.6	66.6	66.6	95	65.1	0	0	---	0.00	30.031 
06:35	66.6	66.6	66.6	95	65.1	0	0	---	0.00	30.031 
06:40	66.6	66.6	66.6	95	65.1	0	0	---	0.00	30.031 
06:45	66.6	66.6	66.6	95	65.1	0	0	---	0.00	30.032 
06:50	66.6	66.6	66.6	95	65.1	0	0	---	0.00	30.032 
06:55	66.6	66.6	66.6	95	65.1	0	0	---	0.00	30.032 
07:00	66.6	66.6	66.6	95	65.1	0	0	---	0.00	30.043 
07:05	66.6	66.6	66.6	95	65.1	0	0	---	0.00	30.043 
07:10	66.8	66.8	66.8	95	65.3	0	1	292	0.00	30.043 
07:15	66.8	66.8	66.8	95	65.3	0	0	---	0.00	30.047 
07:20	66.8	66.8	66.8	95	65.3	0	0	---	0.00	30.047 
07:25	66.8	66.8	66.8	95	65.3	0	1	292	0.00	30.047 
07:30	66.8	66.8	66.8	95	65.3	0	1	292	0.00	30.048 
07:35	66.9	66.9	66.9	95	65.4	0	1	292	0.00	30.048 
07:40	66.9	66.9	66.9	95	65.4	0	1	292	0.00	30.048 
07:45	66.9	66.9	66.9	95	65.4	0	1	292	0.00	30.049 
07:50	67.1	67.1	67.1	95	65.6	0	1	292	0.00	30.049 
07:55	67.1	67.1	67.1	95	65.6	0	1	292	0.00	30.049 
08:00	67.3	67.3	67.3	95	65.8	0	1	292	0.00	30.050 
08:05	67.3	67.3	67.3	95	65.8	0	1	292	0.00	30.050 
08:10	67.3	67.3	67.3	95	65.8	0	1	292	0.00	30.050 
08:15	67.4	67.4	67.4	95	65.9	0	1	292	0.00	30.049 
08:20	67.4	67.4	67.4	94	65.6	0	2	292	0.00	30.049 
08:25	67.6	67.6	67.6	94	65.8	0	1	292	0.00	30.049 
08:30	67.6	67.6	67.6	94	65.8	0	1	292	0.00	30.049 
08:35	67.8	67.8	67.8	94	66.0	0	1	292	0.00	30.049 
08:40	67.8	67.8	67.8	94	66.0	0	1	292	0.00	30.049 
08:45	67.9	67.9	67.9	94	66.1	0	1	292	0.00	30.060 
08:50	67.9	67.9	67.9	94	66.1	0	1	292	0.00	30.060 
08:55	67.9	67.9	67.9	94	66.1	0	2	292	0.00	30.060 
09:00	67.9	67.9	67.9	93	65.8	0	1	292	0.00	30.062 
09:05	67.9	67.9	67.9	93	65.8	0	2	292	0.00	30.062 
09:10	67.9	67.9	67.9	93	65.8	0	1	292	0.00	30.062 
09:15	68.1	68.1	68.1	93	66.0	0	1	292	0.00	30.061 
09:20	68.3	68.3	68.3	93	66.2	0	1	292	0.00	30.061 
09:25	68.3	68.3	68.3	93	66.2	0	2	292	0.00	30.061 
09:30	68.6	68.6	68.6	93	66.5	0	1	292	0.00	30.060 
09:35	68.8	68.8	68.8	93	66.7	0	2	292	0.00	30.060 
09:40	68.9	68.9	68.9	93	66.8	0	1	292	0.00	30.060 
09:45	69.1	69.1	69.1	93	67.0	0	1	292	0.00	30.064 
09:50	69.1	69.1	69.1	92	66.7	0	4	292	0.00	30.064 
09:55	69.3	69.3	69.3	92	66.9	0	1	292	0.00	30.064 
10:00	69.4	69.4	69.4	92	67.0	0	1	292	0.00	30.058 
10:05	69.6	69.6	69.6	92	67.2	0	0	---	0.00	30.058 
10:10	69.9	69.9	69.9	92	67.5	0	1	292	0.00	30.058 
10:15	70.1	70.1	70.1	91	67.3	0	1	292	0.00	30.056 
10:20	70.3	70.3	70.3	91	67.5	0	1	292	0.00	30.056 
10:25	70.6	70.6	70.6	91	67.8	0	1	292	0.00	30.056 
10:30	70.9	70.9	70.9	90	67.8	1	2	292	0.00	30.053 
10:35	71.5	71.5	71.5	89	68.1	0	2	292	0.00	30.053 
10:40	72.1	72.1	72.1	89	68.7	0	2	292	0.00	30.053 
10:45	72.5	72.5	72.5	87	68.4	1	3	292	0.00	30.053 
10:50	72.8	72.8	72.8	86	68.4	0	1	292	0.00	30.053 
10:55	73.3	73.3	73.3	86	68.8	0	2	292	0.00	30.053 
11:00	73.7	73.7	73.7	85	68.9	0	1	292	0.00	30.051 
11:05	74.2	74.2	74.2	84	69.0	0	1	292	0.00	30.051 
11:10	74.0	74.0	74.0	81	67.8	1	3	292	0.00	30.051 
11:15	74.4	74.4	74.4	81	68.2	1	2	22	0.00	30.054 
11:20	74.7	74.7	74.7	81	68.5	1	3	315	0.00	30.054 
11:25	75.4	75.4	76.1	80	68.8	0	2	315	0.00	30.054 
11:30	76.3	76.3	77.6	78	68.9	0	3	0	0.00	30.049 
11:35	77.2	77.2	79.0	76	69.0	0	1	0	0.00	30.049 
11:40	77.6	77.6	79.6	74	68.6	0	3	112	0.00	30.049 
11:45	77.9	77.9	80.0	73	68.5	0	2	112	0.00	30.045 
11:50	78.3	78.3	80.7	76	70.1	0	1	112	0.00	30.045 
11:55	78.6	78.6	81.0	73	69.2	0	2	112	0.00	30.045 
12:00	78.3	78.3	80.5	71	68.1	0	1	112	0.00	30.047 
12:05	77.9	77.9	80.0	73	68.5	0	1	112	0.00	30.047 
12:10	78.1	78.1	80.2	72	68.3	0	2	112	0.00	30.047 
12:15	77.9	77.9	79.9	71	67.7	0	2	112	0.00	30.045 
12:20	77.9	77.9	80.0	73	68.5	0	1	112	0.00	30.045 
12:25	77.7	77.7	79.7	71	67.5	1	4	112	0.00	30.045 
12:30	77.9	77.9	79.9	71	67.7	0	2	112	0.00	30.045 
12:35	78.1	78.1	80.3	73	68.7	0	1	112	0.00	30.045 
12:40	78.3	78.3	80.6	74	69.3	0	2	112	0.00	30.045 
12:45	78.3	78.3	80.7	76	70.1	0	2	112	0.00	30.043 
12:50	78.5	78.5	81.0	75	69.9	0	2	112	0.00	30.043 
12:55	78.3	78.3	80.6	74	69.3	1	4	248	0.00	30.043 
13:00	77.6	77.6	79.6	74	68.6	1	3	248	0.00	30.043 
13:05	77.6	77.6	79.6	76	69.4	0	1	248	0.00	30.043 
13:10	77.4	77.4	79.3	77	69.6	0	1	248	0.00	30.043 
13:15	77.4	77.4	79.3	76	69.2	0	2	248	0.00	30.042 
13:20	77.2	77.2	79.0	75	68.6	0	3	248	0.00	30.042 
13:25	77.2	77.2	79.0	75	68.6	0	3	248	0.00	30.042 
13:30	77.6	77.6	79.6	75	69.0	0	1	248	0.00	30.033 
13:35	77.7	77.7	79.7	73	68.3	0	2	248	0.00	30.033 
13:40	77.9	77.9	79.9	71	67.7	0	2	248	0.00	30.033 
13:45	78.6	78.6	80.8	70	68.0	1	2	248	0.00	30.031 
13:50	79.4	79.4	81.9	69	68.3	0	3	248	0.00	30.031 
13:55	79.8	79.8	82.5	69	68.7	0	2	248	0.00	30.031 
14:00	79.6	79.6	81.8	65	66.8	1	3	248	0.00	30.026 
14:05	79.8	79.8	82.1	65	67.0	0	2	248	0.00	30.026 
14:10	79.8	79.8	82.2	66	67.4	1	3	248	0.00	30.026 
14:15	80.1	80.1	82.5	65	67.2	1	4	248	0.00	30.024 
14:20	80.7	80.7	83.5	66	68.3	0	2	292	0.00	30.024 
14:25	80.9	80.9	83.7	65	68.0	0	2	292	0.00	30.024 
14:30	80.5	80.5	83.2	66	68.1	0	2	292	0.00	30.021 
14:35	79.8	79.8	82.3	67	67.8	0	3	315	0.00	30.021 
14:40	79.0	79.0	81.1	66	66.6	1	5	315	0.00	30.021 
14:45	78.6	78.6	80.8	69	67.6	0	5	292	0.00	30.021 
14:50	78.5	78.5	80.7	69	67.5	1	3	270	0.00	30.021 
14:55	78.8	78.8	81.1	69	67.7	0	2	270	0.00	30.021 
15:00	78.8	78.8	81.0	68	67.3	1	3	270	0.00	30.026 
15:05	78.6	78.6	80.8	69	67.6	1	2	270	0.00	30.026 
15:10	78.3	78.3	80.4	69	67.3	1	3	270	0.00	30.026 
15:15	78.3	78.3	80.4	69	67.3	0	2	270	0.00	30.021 
15:20	78.5	78.5	80.7	70	67.9	0	3	270	0.00	30.021 
15:25	79.2	79.2	81.8	71	69.0	1	3	270	0.00	30.021 
15:30	79.6	79.6	82.2	69	68.5	1	3	270	0.00	30.013 
15:35	79.4	79.4	81.9	69	68.3	1	3	90	0.00	30.013 
15:40	79.2	79.2	81.6	69	68.1	0	2	90	0.00	30.013 
15:45	79.4	79.4	82.2	72	69.6	1	6	90	0.00	30.015 
15:50	79.6	79.6	82.3	70	68.9	0	6	90	0.00	30.015 
15:55	79.4	79.4	82.0	70	68.7	1	2	90	0.00	30.015 
16:00	78.8	78.8	81.2	71	68.6	1	2	90	0.00	30.012 
16:05	78.5	78.5	80.8	72	68.7	1	3	248	0.00	30.012 
16:10	78.1	78.1	80.2	71	67.9	1	5	292	0.00	30.012 
16:15	78.1	78.1	80.2	72	68.3	0	2	292	0.00	30.011 
16:20	78.1	78.1	80.3	73	68.7	1	3	292	0.00	30.011 
16:25	78.1	78.1	80.3	73	68.7	1	2	315	0.00	30.011 
16:30	78.1	78.1	80.2	72	68.3	1	3	315	0.00	30.004 
16:35	78.1	78.1	80.3	73	68.7	0	2	315	0.00	30.004 
16:40	78.3	78.3	80.5	71	68.1	0	2	315	0.00	30.004 
16:45	78.6	78.6	80.9	71	68.4	0	2	315	0.00	30.005 
16:50	78.8	78.8	81.1	69	67.7	1	3	315	0.00	30.005 
16:55	79.2	79.2	81.6	69	68.1	1	3	315	0.00	30.005 
17:00	79.6	79.6	82.0	67	67.7	1	3	315	0.00	30.004 
17:05	79.8	79.8	82.3	67	67.8	1	5	315	0.00	30.004 
17:10	79.6	79.6	82.2	69	68.5	1	3	292	0.00	30.004 
17:15	79.2	79.2	81.5	68	67.7	1	3	292	0.00	29.998 
17:20	78.8	78.8	81.1	69	67.7	0	3	292	0.00	29.998 
17:25	78.5	78.5	80.7	70	67.9	0	3	90	0.00	29.998 
17:30	78.1	78.1	80.1	69	67.1	1	3	90	0.00	29.989 
17:35	77.7	77.7	79.6	70	67.1	0	3	315	0.00	29.989 
17:40	77.6	77.6	79.5	70	67.0	0	2	292	0.00	29.989 
17:45	77.4	77.4	79.3	72	67.6	0	1	292	0.00	29.999 
17:50	77.2	77.2	79.0	73	67.9	0	1	292	0.00	29.999 
17:55	77.2	77.2	79.0	74	68.3	0	1	292	0.00	29.999 
18:00	77.0	77.0	78.7	74	68.1	0	1	292	0.00	29.996 
18:05	76.8	76.8	78.4	75	68.3	0	2	292	0.00	29.996 
18:10	76.8	76.8	78.4	75	68.3	0	1	292	0.00	29.996 
18:15	77.0	77.0	78.7	76	68.8	0	1	292	0.00	29.993 
18:20	77.0	77.0	78.7	76	68.8	0	1	292	0.00	29.993 
18:25	77.2	77.2	79.0	76	69.0	0	1	292	0.00	29.993 
18:30	77.2	77.2	79.0	76	69.0	0	1	292	0.00	29.981 
18:35	77.4	77.4	79.3	77	69.6	0	0	---	0.00	29.981 
18:40	77.6	77.6	79.6	76	69.4	0	0	---	0.00	29.981 
18:45	77.7	77.7	79.7	75	69.1	0	2	292	0.00	29.990 
18:50	77.7	77.7	79.7	73	68.3	0	2	292	0.00	29.990 
18:55	77.7	77.7	79.7	73	68.3	0	2	292	0.00	29.990 
19:00	77.9	77.9	79.9	72	68.1	0	2	292	0.00	29.996 
19:05	77.9	77.9	79.9	72	68.1	0	1	292	0.00	29.996 
19:10	77.9	77.9	80.0	73	68.5	0	0	---	0.00	29.996 
19:15	77.9	77.9	80.0	73	68.5	0	1	292	0.00	29.997 
19:20	77.9	77.9	80.0	73	68.5	0	1	292	0.00	29.997 
19:25	77.7	77.7	79.7	73	68.3	0	1	292	0.00	29.997 
19:30	77.7	77.7	79.7	73	68.3	0	1	292	0.00	30.006 
19:35	77.6	77.6	79.6	78	70.2	1	4	112	0.00	30.006 
19:40	76.5	76.5	77.7	81	70.2	1	4	112	0.00	30.006 
19:45	75.4	75.4	76.0	81	69.1	1	3	112	0.00	30.011 
19:50	74.6	74.6	74.6	82	68.7	0	1	112	0.00	30.011 
19:55	74.2	74.2	74.2	82	68.3	0	2	112	0.00	30.011 
20:00	73.9	73.9	73.9	83	68.4	0	2	112	0.00	30.003 
20:05	73.7	73.7	73.7	84	68.6	0	1	112	0.00	30.003 
20:10	73.5	73.5	73.5	84	68.4	0	1	112	0.00	30.003 
20:15	73.5	73.5	73.5	85	68.7	0	1	112	0.00	30.005 
20:20	73.3	73.3	73.3	85	68.5	0	1	112	0.00	30.005 
20:25	73.3	73.3	73.3	85	68.5	0	1	112	0.00	30.005 
20:30	73.3	73.3	73.3	86	68.8	0	0	---	0.00	30.014 
20:35	73.2	73.2	73.2	85	68.4	0	1	135	0.00	30.014 
20:40	73.2	73.2	73.2	85	68.4	0	1	135	0.00	30.014 
20:45	73.2	73.2	73.2	86	68.7	0	0	---	0.00	30.022 
20:50	73.2	73.2	73.2	86	68.7	0	0	---	0.00	30.022 
20:55	73.2	73.2	73.2	86	68.7	0	0	---	0.00	30.022 
21:00	73.2	73.2	73.2	87	69.1	0	0	---	0.01	30.017 
21:05	73.2	73.2	73.2	88	69.4	0	0	---	0.00	30.017 
21:10	73.0	73.0	73.0	88	69.2	0	1	135	0.01	30.017 
21:15	73.0	73.0	73.0	88	69.2	0	0	---	0.00	30.018 
21:20	73.0	73.0	73.0	89	69.6	0	0	---	0.00	30.018 
21:25	72.8	72.8	72.8	90	69.7	0	0	---	0.00	30.018 
21:30	72.7	72.7	72.7	90	69.6	0	0	---	0.00	30.019 
21:35	72.7	72.7	72.7	90	69.6	0	0	---	0.00	30.019 
21:40	72.5	72.5	72.5	90	69.4	0	0	---	0.00	30.019 
21:45	72.5	72.5	72.5	91	69.7	0	0	---	0.00	30.025 
21:50	72.3	72.3	72.3	91	69.5	0	0	---	0.00	30.025 
21:55	72.3	72.3	72.3	92	69.8	0	0	---	0.00	30.025 
22:00	72.3	72.3	72.3	92	69.8	0	0	---	0.01	30.025 
22:05	72.1	72.1	72.1	92	69.6	0	0	---	0.00	30.025 
22:10	72.1	72.1	72.1	92	69.6	0	0	---	0.00	30.025 
22:15	72.1	72.1	72.1	92	69.6	0	0	---	0.00	30.026 
22:20	72.0	72.0	72.0	92	69.5	0	0	---	0.00	30.026 
22:25	72.0	72.0	72.0	92	69.5	0	0	---	0.00	30.026 
22:30	72.0	72.0	72.0	93	69.9	0	0	---	0.00	30.027 
22:35	72.0	72.0	72.0	93	69.9	0	0	---	0.00	30.027 
22:40	72.0	72.0	72.0	93	69.9	0	0	---	0.00	30.027 
22:45	72.0	72.0	72.0	93	69.9	0	0	---	0.00	30.027 
22:50	72.0	72.0	72.0	93	69.9	0	0	---	0.00	30.027 
22:55	72.0	72.0	72.0	93	69.9	0	0	---	0.00	30.027 
23:00	72.0	72.0	72.0	93	69.9	0	0	---	0.00	30.028 
23:05	72.0	72.0	72.0	93	69.9	0	0	---	0.00	30.028 
23:10	72.0	72.0	72.0	94	70.2	0	0	---	0.00	30.028 
23:15	71.8	71.8	71.8	94	70.0	0	0	---	0.00	30.024 
23:20	71.8	71.8	71.8	94	70.0	0	0	---	0.00	30.024 
23:25	71.8	71.8	71.8	94	70.0	0	0	---	0.00	30.024 
23:30	71.8	71.8	71.8	94	70.0	0	0	---	0.00	30.021 
23:35	71.8	71.8	71.8	94	70.0	0	0	---	0.00	30.021 
23:40	71.8	71.8	71.8	94	70.0	0	0	---	0.00	30.021 
23:45	71.6	71.6	71.6	94	69.8	0	0	---	0.00	30.023 
23:50	71.6	71.6	71.6	94	69.8	0	0	---	0.00	30.023 
23:55	71.6	71.6	71.6	94	69.8	0	0	---	0.00	30.023 

CoCoRaHS
IN-AL-39
A2 Web Hosting
Creative Commons License
GoDaddy
search engine by freefind advanced

loaded 2018-11-17 14:26:05 • last modified 2010-11-18 10:43:29
Privacy PolicyDisclaimer
• wx.awcolley.com is powered by PmWiki v.2002016 •
• all content (unless otherwise noted) © 2018 A W Colley